sensor_id;sensor_type;location;lat;lon;timestamp;pressure;altitude;pressure_sealevel;temperature;humidity
72409;BME280;60402;48.082;11.628;2023-03-15T00:00:52;94624.97;;;2.91;100.00
72409;BME280;60402;48.082;11.628;2023-03-15T00:03:21;94618.22;;;2.92;100.00
72409;BME280;60402;48.082;11.628;2023-03-15T00:05:48;94601.50;;;2.89;100.00
72409;BME280;60402;48.082;11.628;2023-03-15T00:08:14;94622.75;;;3.13;100.00
72409;BME280;60402;48.082;11.628;2023-03-15T00:10:41;94620.38;;;3.12;100.00
72409;BME280;60402;48.082;11.628;2023-03-15T00:13:06;94627.56;;;3.09;100.00
72409;BME280;60402;48.082;11.628;2023-03-15T00:15:32;94613.94;;;3.15;100.00
72409;BME280;60402;48.082;11.628;2023-03-15T00:17:57;94599.34;;;3.03;100.00
72409;BME280;60402;48.082;11.628;2023-03-15T00:20:22;94622.66;;;3.20;100.00
72409;BME280;60402;48.082;11.628;2023-03-15T00:22:48;94617.50;;;3.15;100.00
72409;BME280;60402;48.082;11.628;2023-03-15T00:25:13;94615.13;;;3.17;100.00
72409;BME280;60402;48.082;11.628;2023-03-15T00:27:38;94622.56;;;3.27;100.00
72409;BME280;60402;48.082;11.628;2023-03-15T00:30:04;94627.28;;;3.34;100.00
72409;BME280;60402;48.082;11.628;2023-03-15T00:32:29;94631.59;;;3.39;100.00
72409;BME280;60402;48.082;11.628;2023-03-15T00:34:55;94629.53;;;3.43;100.00
72409;BME280;60402;48.082;11.628;2023-03-15T00:37:21;94631.81;;;3.51;100.00
72409;BME280;60402;48.082;11.628;2023-03-15T00:39:50;94635.84;;;3.50;100.00
72409;BME280;60402;48.082;11.628;2023-03-15T00:42:15;94642.59;;;3.53;100.00
72409;BME280;60402;48.082;11.628;2023-03-15T00:44:44;94631.22;;;3.37;100.00
72409;BME280;60402;48.082;11.628;2023-03-15T00:47:10;94613.63;;;3.40;100.00
72409;BME280;60402;48.082;11.628;2023-03-15T00:49:36;94619.88;;;3.20;100.00
72409;BME280;60402;48.082;11.628;2023-03-15T00:52:01;94598.69;;;3.23;100.00
72409;BME280;60402;48.082;11.628;2023-03-15T00:54:27;94594.53;;;3.04;100.00
72409;BME280;60402;48.082;11.628;2023-03-15T00:56:52;94608.59;;;3.27;100.00
72409;BME280;60402;48.082;11.628;2023-03-15T00:59:17;94609.31;;;3.35;100.00
72409;BME280;60402;48.082;11.628;2023-03-15T01:01:43;94623.19;;;3.39;100.00
72409;BME280;60402;48.082;11.628;2023-03-15T01:04:09;94630.41;;;3.40;100.00
72409;BME280;60402;48.082;11.628;2023-03-15T01:06:36;94635.69;;;3.30;100.00
72409;BME280;60402;48.082;11.628;2023-03-15T01:09:02;94691.88;;;3.36;100.00
72409;BME280;60402;48.082;11.628;2023-03-15T01:11:27;94677.31;;;2.80;100.00
72409;BME280;60402;48.082;11.628;2023-03-15T01:13:55;94707.84;;;2.56;100.00
72409;BME280;60402;48.082;11.628;2023-03-15T01:16:21;94691.13;;;2.53;100.00
72409;BME280;60402;48.082;11.628;2023-03-15T01:18:47;94692.91;;;2.33;100.00
72409;BME280;60402;48.082;11.628;2023-03-15T01:21:14;94685.41;;;2.26;100.00
72409;BME280;60402;48.082;11.628;2023-03-15T01:23:40;94687.09;;;2.09;100.00
72409;BME280;60402;48.082;11.628;2023-03-15T01:26:07;94656.16;;;1.93;100.00
72409;BME280;60402;48.082;11.628;2023-03-15T01:28:34;94676.63;;;2.24;100.00
72409;BME280;60402;48.082;11.628;2023-03-15T01:30:59;94648.88;;;2.06;100.00
72409;BME280;60402;48.082;11.628;2023-03-15T01:33:25;94654.50;;;2.02;100.00
72409;BME280;60402;48.082;11.628;2023-03-15T01:35:58;94661.31;;;1.98;100.00
72409;BME280;60402;48.082;11.628;2023-03-15T01:38:24;94652.56;;;1.92;100.00
72409;BME280;60402;48.082;11.628;2023-03-15T01:40:49;94642.19;;;1.96;100.00
72409;BME280;60402;48.082;11.628;2023-03-15T01:43:15;94643.06;;;1.90;100.00
72409;BME280;60402;48.082;11.628;2023-03-15T01:48:34;94660.16;;;1.88;100.00
72409;BME280;60402;48.082;11.628;2023-03-15T01:51:09;94651.09;;;1.77;100.00
72409;BME280;60402;48.082;11.628;2023-03-15T01:53:36;94652.19;;;1.90;100.00
72409;BME280;60402;48.082;11.628;2023-03-15T01:56:03;94643.44;;;1.92;100.00
72409;BME280;60402;48.082;11.628;2023-03-15T01:58:29;94652.09;;;2.04;100.00
72409;BME280;60402;48.082;11.628;2023-03-15T02:00:55;94649.84;;;1.85;100.00
72409;BME280;60402;48.082;11.628;2023-03-15T02:03:23;94658.31;;;1.67;100.00
72409;BME280;60402;48.082;11.628;2023-03-15T02:05:53;94664.22;;;1.76;100.00
72409;BME280;60402;48.082;11.628;2023-03-15T02:08:22;94691.66;;;1.78;100.00
72409;BME280;60402;48.082;11.628;2023-03-15T02:10:51;94694.53;;;1.67;100.00
72409;BME280;60402;48.082;11.628;2023-03-15T02:13:19;94686.50;;;1.80;100.00
72409;BME280;60402;48.082;11.628;2023-03-15T02:15:49;94673.03;;;1.71;100.00
72409;BME280;60402;48.082;11.628;2023-03-15T02:18:18;94693.22;;;1.83;100.00
72409;BME280;60402;48.082;11.628;2023-03-15T02:23:30;94686.53;;;1.69;100.00
72409;BME280;60402;48.082;11.628;2023-03-15T02:28:43;94689.28;;;1.80;100.00
72409;BME280;60402;48.082;11.628;2023-03-15T02:31:09;94730.63;;;1.85;100.00
72409;BME280;60402;48.082;11.628;2023-03-15T02:33:46;94721.00;;;2.00;100.00
72409;BME280;60402;48.082;11.628;2023-03-15T02:36:23;94724.22;;;1.95;100.00
72409;BME280;60402;48.082;11.628;2023-03-15T02:38:50;94722.22;;;1.92;100.00
72409;BME280;60402;48.082;11.628;2023-03-15T02:41:19;94733.78;;;1.91;100.00
72409;BME280;60402;48.082;11.628;2023-03-15T02:43:47;94735.06;;;1.79;100.00
72409;BME280;60402;48.082;11.628;2023-03-15T02:46:14;94739.25;;;2.12;100.00
72409;BME280;60402;48.082;11.628;2023-03-15T02:48:41;94733.84;;;1.84;100.00
72409;BME280;60402;48.082;11.628;2023-03-15T02:51:07;94727.44;;;1.87;100.00
72409;BME280;60402;48.082;11.628;2023-03-15T02:53:40;94735.06;;;1.75;100.00
72409;BME280;60402;48.082;11.628;2023-03-15T02:56:05;94752.09;;;1.88;100.00
72409;BME280;60402;48.082;11.628;2023-03-15T02:58:31;94766.81;;;1.92;100.00
72409;BME280;60402;48.082;11.628;2023-03-15T03:00:56;94778.75;;;1.93;100.00
72409;BME280;60402;48.082;11.628;2023-03-15T03:03:21;94773.22;;;1.86;100.00
72409;BME280;60402;48.082;11.628;2023-03-15T03:05:47;94790.00;;;1.75;100.00
72409;BME280;60402;48.082;11.628;2023-03-15T03:08:12;94806.22;;;1.87;100.00
72409;BME280;60402;48.082;11.628;2023-03-15T03:10:40;94831.28;;;1.94;100.00
72409;BME280;60402;48.082;11.628;2023-03-15T03:13:05;94835.66;;;1.92;100.00
72409;BME280;60402;48.082;11.628;2023-03-15T03:15:31;94846.06;;;1.73;100.00
72409;BME280;60402;48.082;11.628;2023-03-15T03:17:56;94856.84;;;1.64;100.00
72409;BME280;60402;48.082;11.628;2023-03-15T03:20:21;94849.31;;;1.50;100.00
72409;BME280;60402;48.082;11.628;2023-03-15T03:22:47;94893.50;;;1.52;100.00
72409;BME280;60402;48.082;11.628;2023-03-15T03:25:12;94892.28;;;1.57;100.00
72409;BME280;60402;48.082;11.628;2023-03-15T03:27:39;94895.88;;;1.53;100.00
72409;BME280;60402;48.082;11.628;2023-03-15T03:30:07;94901.81;;;1.63;100.00
72409;BME280;60402;48.082;11.628;2023-03-15T03:32:33;94903.41;;;1.64;100.00
72409;BME280;60402;48.082;11.628;2023-03-15T03:34:58;94900.66;;;1.39;100.00
72409;BME280;60402;48.082;11.628;2023-03-15T03:37:24;94908.19;;;1.45;100.00
72409;BME280;60402;48.082;11.628;2023-03-15T03:39:49;94932.50;;;1.41;100.00
72409;BME280;60402;48.082;11.628;2023-03-15T03:42:14;94940.44;;;1.39;100.00
72409;BME280;60402;48.082;11.628;2023-03-15T03:44:40;94931.69;;;1.23;100.00
72409;BME280;60402;48.082;11.628;2023-03-15T03:47:06;94953.56;;;1.35;100.00
72409;BME280;60402;48.082;11.628;2023-03-15T03:49:31;94969.06;;;1.29;100.00
72409;BME280;60402;48.082;11.628;2023-03-15T03:51:57;94959.13;;;1.21;100.00
72409;BME280;60402;48.082;11.628;2023-03-15T03:54:24;94988.53;;;1.25;100.00
72409;BME280;60402;48.082;11.628;2023-03-15T03:56:49;94970.25;;;1.21;100.00
72409;BME280;60402;48.082;11.628;2023-03-15T03:59:14;94976.59;;;1.04;100.00
72409;BME280;60402;48.082;11.628;2023-03-15T04:01:40;94992.09;;;1.08;100.00
72409;BME280;60402;48.082;11.628;2023-03-15T04:04:06;95002.06;;;1.27;100.00
72409;BME280;60402;48.082;11.628;2023-03-15T04:06:32;94990.53;;;1.21;100.00
72409;BME280;60402;48.082;11.628;2023-03-15T04:08:57;95003.66;;;1.24;100.00
72409;BME280;60402;48.082;11.628;2023-03-15T04:11:22;95018.78;;;1.23;100.00
72409;BME280;60402;48.082;11.628;2023-03-15T04:13:51;95017.16;;;1.05;100.00
72409;BME280;60402;48.082;11.628;2023-03-15T04:16:18;95034.25;;;1.17;100.00
72409;BME280;60402;48.082;11.628;2023-03-15T04:18:43;95016.34;;;1.08;100.00
72409;BME280;60402;48.082;11.628;2023-03-15T04:21:08;95041.38;;;1.08;100.00
72409;BME280;60402;48.082;11.628;2023-03-15T04:23:35;95055.34;;;1.18;100.00
72409;BME280;60402;48.082;11.628;2023-03-15T04:26:01;95049.31;;;0.98;100.00
72409;BME280;60402;48.082;11.628;2023-03-15T04:28:27;95053.69;;;1.03;100.00
72409;BME280;60402;48.082;11.628;2023-03-15T04:30:54;95083.94;;;1.05;100.00
72409;BME280;60402;48.082;11.628;2023-03-15T04:33:23;95071.22;;;1.04;100.00
72409;BME280;60402;48.082;11.628;2023-03-15T04:35:48;95065.59;;;0.93;100.00
72409;BME280;60402;48.082;11.628;2023-03-15T04:38:14;95077.50;;;0.93;100.00
72409;BME280;60402;48.082;11.628;2023-03-15T04:40:39;95081.47;;;0.82;100.00
72409;BME280;60402;48.082;11.628;2023-03-15T04:43:07;95089.00;;;0.81;100.00
72409;BME280;60402;48.082;11.628;2023-03-15T04:45:32;95109.34;;;0.99;100.00
72409;BME280;60402;48.082;11.628;2023-03-15T04:47:58;95098.19;;;0.96;100.00
72409;BME280;60402;48.082;11.628;2023-03-15T04:50:25;95109.34;;;0.99;100.00
72409;BME280;60402;48.082;11.628;2023-03-15T04:52:51;95121.66;;;0.95;100.00
72409;BME280;60402;48.082;11.628;2023-03-15T04:55:17;95103.72;;;0.85;100.00
72409;BME280;60402;48.082;11.628;2023-03-15T04:57:42;95114.47;;;0.90;100.00
72409;BME280;60402;48.082;11.628;2023-03-15T05:00:08;95128.81;;;0.96;100.00
72409;BME280;60402;48.082;11.628;2023-03-15T05:02:36;95134.75;;;0.98;100.00
72409;BME280;60402;48.082;11.628;2023-03-15T05:05:13;95120.78;;;0.80;100.00
72409;BME280;60402;48.082;11.628;2023-03-15T05:07:38;95145.06;;;0.94;100.00
72409;BME280;60402;48.082;11.628;2023-03-15T05:10:04;95162.56;;;0.91;100.00
72409;BME280;60402;48.082;11.628;2023-03-15T05:12:30;95164.91;;;0.82;100.00
72409;BME280;60402;48.082;11.628;2023-03-15T05:14:56;95175.19;;;0.74;100.00
72409;BME280;60402;48.082;11.628;2023-03-15T05:17:21;95161.63;;;0.69;100.00
72409;BME280;60402;48.082;11.628;2023-03-15T05:19:50;95160.41;;;0.59;100.00
72409;BME280;60402;48.082;11.628;2023-03-15T05:22:16;95186.63;;;0.65;100.00
72409;BME280;60402;48.082;11.628;2023-03-15T05:24:41;95191.03;;;0.66;100.00
72409;BME280;60402;48.082;11.628;2023-03-15T05:27:07;95173.81;;;0.43;100.00
72409;BME280;60402;48.082;11.628;2023-03-15T05:29:33;95195.25;;;0.46;100.00
72409;BME280;60402;48.082;11.628;2023-03-15T05:31:58;95207.97;;;0.47;100.00
72409;BME280;60402;48.082;11.628;2023-03-15T05:34:23;95191.31;;;0.50;100.00
72409;BME280;60402;48.082;11.628;2023-03-15T05:36:50;95188.91;;;0.45;100.00
72409;BME280;60402;48.082;11.628;2023-03-15T05:39:16;95224.78;;;0.65;100.00
72409;BME280;60402;48.082;11.628;2023-03-15T05:41:42;95203.28;;;0.58;100.00
72409;BME280;60402;48.082;11.628;2023-03-15T05:44:08;95217.13;;;0.47;100.00
72409;BME280;60402;48.082;11.628;2023-03-15T05:46:33;95214.69;;;0.42;100.00
72409;BME280;60402;48.082;11.628;2023-03-15T05:48:59;95227.41;;;0.47;100.00
72409;BME280;60402;48.082;11.628;2023-03-15T05:51:25;95224.69;;;0.50;100.00
72409;BME280;60402;48.082;11.628;2023-03-15T05:53:50;95246.72;;;0.77;100.00
72409;BME280;60402;48.082;11.628;2023-03-15T05:56:15;95231.94;;;0.66;100.00
72409;BME280;60402;48.082;11.628;2023-03-15T05:58:41;95253.88;;;0.78;100.00
72409;BME280;60402;48.082;11.628;2023-03-15T06:01:06;95250.19;;;0.63;100.00
72409;BME280;60402;48.082;11.628;2023-03-15T06:03:31;95272.94;;;0.80;100.00
72409;BME280;60402;48.082;11.628;2023-03-15T06:05:57;95250.94;;;0.57;100.00
72409;BME280;60402;48.082;11.628;2023-03-15T06:08:23;95273.75;;;0.76;100.00
72409;BME280;60402;48.082;11.628;2023-03-15T06:10:48;95266.44;;;0.58;100.00
72409;BME280;60402;48.082;11.628;2023-03-15T06:13:13;95278.03;;;0.70;100.00
72409;BME280;60402;48.082;11.628;2023-03-15T06:15:39;95266.00;;;0.52;100.00
72409;BME280;60402;48.082;11.628;2023-03-15T06:18:04;95298.69;;;0.69;100.00
72409;BME280;60402;48.082;11.628;2023-03-15T06:20:29;95280.72;;;0.53;100.00
72409;BME280;60402;48.082;11.628;2023-03-15T06:22:56;95302.00;;;0.82;100.00
72409;BME280;60402;48.082;11.628;2023-03-15T06:25:21;95313.03;;;0.75;100.00
72409;BME280;60402;48.082;11.628;2023-03-15T06:27:46;95306.78;;;0.85;100.00
72409;BME280;60402;48.082;11.628;2023-03-15T06:30:12;95320.75;;;0.92;100.00
72409;BME280;60402;48.082;11.628;2023-03-15T06:32:38;95325.56;;;0.99;100.00
72409;BME280;60402;48.082;11.628;2023-03-15T06:35:03;95308.41;;;0.90;100.00
72409;BME280;60402;48.082;11.628;2023-03-15T06:37:29;95317.94;;;0.92;100.00
72409;BME280;60402;48.082;11.628;2023-03-15T06:39:55;95296.13;;;0.94;100.00
72409;BME280;60402;48.082;11.628;2023-03-15T06:42:20;95326.75;;;1.01;100.00
72409;BME280;60402;48.082;11.628;2023-03-15T06:44:46;95296.22;;;1.12;100.00
72409;BME280;60402;48.082;11.628;2023-03-15T06:47:11;95309.03;;;1.24;100.00
72409;BME280;60402;48.082;11.628;2023-03-15T06:49:37;95332.69;;;1.59;100.00
72409;BME280;60402;48.082;11.628;2023-03-15T06:52:04;95327.19;;;1.73;100.00
72409;BME280;60402;48.082;11.628;2023-03-15T06:54:30;95342.03;;;1.98;99.92
72409;BME280;60402;48.082;11.628;2023-03-15T06:56:56;95332.88;;;2.01;98.67
72409;BME280;60402;48.082;11.628;2023-03-15T06:59:22;95332.97;;;2.34;97.69
72409;BME280;60402;48.082;11.628;2023-03-15T07:01:47;95323.44;;;2.56;96.01
72409;BME280;60402;48.082;11.628;2023-03-15T07:04:12;95314.28;;;2.91;94.27
72409;BME280;60402;48.082;11.628;2023-03-15T07:06:38;95331.03;;;3.30;92.53
72409;BME280;60402;48.082;11.628;2023-03-15T07:09:04;95341.28;;;3.83;90.62
72409;BME280;60402;48.082;11.628;2023-03-15T07:11:30;95351.16;;;4.13;89.02
72409;BME280;60402;48.082;11.628;2023-03-15T07:13:55;95349.50;;;4.23;88.44
72409;BME280;60402;48.082;11.628;2023-03-15T07:16:20;95323.81;;;4.42;86.90
72409;BME280;60402;48.082;11.628;2023-03-15T07:18:46;95346.88;;;5.23;83.97
72409;BME280;60402;48.082;11.628;2023-03-15T07:21:11;95339.13;;;5.79;81.31
72409;BME280;60402;48.082;11.628;2023-03-15T07:23:36;95353.84;;;5.87;80.47
72409;BME280;60402;48.082;11.628;2023-03-15T07:26:02;95359.03;;;5.92;80.65
72409;BME280;60402;48.082;11.628;2023-03-15T07:28:28;95363.47;;;5.86;81.14
72409;BME280;60402;48.082;11.628;2023-03-15T07:31:00;95367.41;;;5.96;79.99
72409;BME280;60402;48.082;11.628;2023-03-15T07:33:27;95369.47;;;5.92;79.85
72409;BME280;60402;48.082;11.628;2023-03-15T07:35:52;95372.84;;;6.44;79.04
72409;BME280;60402;48.082;11.628;2023-03-15T07:38:19;95374.34;;;7.10;77.80
72409;BME280;60402;48.082;11.628;2023-03-15T07:40:45;95356.44;;;7.51;73.07
72409;BME280;60402;48.082;11.628;2023-03-15T07:43:10;95375.00;;;8.55;71.10
72409;BME280;60402;48.082;11.628;2023-03-15T07:45:36;95379.25;;;10.01;61.10
72409;BME280;60402;48.082;11.628;2023-03-15T07:48:01;95384.84;;;10.49;58.93
72409;BME280;60402;48.082;11.628;2023-03-15T07:50:27;95364.94;;;11.08;55.78
72409;BME280;60402;48.082;11.628;2023-03-15T07:52:52;95364.25;;;12.27;53.04
72409;BME280;60402;48.082;11.628;2023-03-15T07:55:17;95357.47;;;13.35;49.81
72409;BME280;60402;48.082;11.628;2023-03-15T07:57:49;95372.78;;;15.52;44.13
72409;BME280;60402;48.082;11.628;2023-03-15T08:00:15;95344.28;;;17.34;39.73
72409;BME280;60402;48.082;11.628;2023-03-15T08:02:43;95366.13;;;17.82;37.46
72409;BME280;60402;48.082;11.628;2023-03-15T08:05:12;95379.38;;;18.14;37.07
72409;BME280;60402;48.082;11.628;2023-03-15T08:07:37;95378.94;;;19.44;33.12
72409;BME280;60402;48.082;11.628;2023-03-15T08:10:03;95377.50;;;18.67;35.40
72409;BME280;60402;48.082;11.628;2023-03-15T08:12:29;95363.63;;;20.48;31.32
72409;BME280;60402;48.082;11.628;2023-03-15T08:14:55;95382.88;;;20.04;31.21
72409;BME280;60402;48.082;11.628;2023-03-15T08:17:20;95386.81;;;19.29;32.04
72409;BME280;60402;48.082;11.628;2023-03-15T08:19:46;95374.59;;;20.17;31.44
72409;BME280;60402;48.082;11.628;2023-03-15T08:22:11;95385.44;;;21.53;30.05
72409;BME280;60402;48.082;11.628;2023-03-15T08:24:36;95357.59;;;21.00;29.96
72409;BME280;60402;48.082;11.628;2023-03-15T08:27:02;95379.88;;;18.89;32.05
72409;BME280;60402;48.082;11.628;2023-03-15T08:29:29;95365.84;;;20.75;30.31
72409;BME280;60402;48.082;11.628;2023-03-15T08:31:54;95367.28;;;20.54;30.25
72409;BME280;60402;48.082;11.628;2023-03-15T08:34:20;95370.19;;;19.07;32.97
72409;BME280;60402;48.082;11.628;2023-03-15T08:36:54;95376.84;;;18.57;33.20
72409;BME280;60402;48.082;11.628;2023-03-15T08:39:19;95379.66;;;17.22;34.63
72409;BME280;60402;48.082;11.628;2023-03-15T08:41:48;95367.69;;;17.98;33.92
72409;BME280;60402;48.082;11.628;2023-03-15T08:44:14;95368.75;;;19.17;31.68
72409;BME280;60402;48.082;11.628;2023-03-15T08:46:39;95368.69;;;17.35;33.69
72409;BME280;60402;48.082;11.628;2023-03-15T08:49:05;95367.19;;;18.55;32.27
72409;BME280;60402;48.082;11.628;2023-03-15T08:51:30;95374.63;;;17.32;36.28
72409;BME280;60402;48.082;11.628;2023-03-15T08:53:55;95375.88;;;18.25;32.88
72409;BME280;60402;48.082;11.628;2023-03-15T08:56:21;95363.75;;;19.38;30.96
72409;BME280;60402;48.082;11.628;2023-03-15T08:58:46;95369.78;;;19.40;30.34
72409;BME280;60402;48.082;11.628;2023-03-15T09:01:13;95366.16;;;19.19;30.86
72409;BME280;60402;48.082;11.628;2023-03-15T09:03:39;95365.38;;;19.19;30.68
72409;BME280;60402;48.082;11.628;2023-03-15T09:06:06;95370.41;;;21.04;28.23
72409;BME280;60402;48.082;11.628;2023-03-15T09:08:32;95373.13;;;19.12;31.71
72409;BME280;60402;48.082;11.628;2023-03-15T09:10:57;95366.41;;;19.15;31.60
72409;BME280;60402;48.082;11.628;2023-03-15T09:13:24;95381.00;;;20.01;31.17
72409;BME280;60402;48.082;11.628;2023-03-15T09:15:50;95376.44;;;20.52;30.15
72409;BME280;60402;48.082;11.628;2023-03-15T09:18:16;95370.16;;;19.79;31.10
72409;BME280;60402;48.082;11.628;2023-03-15T09:20:42;95378.66;;;20.00;28.80
72409;BME280;60402;48.082;11.628;2023-03-15T09:23:07;95381.72;;;17.36;32.32
72409;BME280;60402;48.082;11.628;2023-03-15T09:25:32;95378.84;;;15.36;35.58
72409;BME280;60402;48.082;11.628;2023-03-15T09:27:58;95378.97;;;13.85;38.16
72409;BME280;60402;48.082;11.628;2023-03-15T09:30:23;95383.81;;;12.69;41.48
72409;BME280;60402;48.082;11.628;2023-03-15T09:32:49;95395.03;;;12.95;40.39
72409;BME280;60402;48.082;11.628;2023-03-15T09:35:17;95373.56;;;12.85;42.11
72409;BME280;60402;48.082;11.628;2023-03-15T09:37:43;95377.00;;;13.11;41.12
72409;BME280;60402;48.082;11.628;2023-03-15T09:40:16;95368.38;;;11.54;44.39
72409;BME280;60402;48.082;11.628;2023-03-15T09:45:26;95389.31;;;10.02;46.21
72409;BME280;60402;48.082;11.628;2023-03-15T09:50:36;95369.88;;;10.91;47.05
72409;BME280;60402;48.082;11.628;2023-03-15T09:53:18;95387.69;;;11.81;46.25
72409;BME280;60402;48.082;11.628;2023-03-15T09:55:47;95373.19;;;11.66;45.49
72409;BME280;60402;48.082;11.628;2023-03-15T09:58:18;95354.69;;;11.39;46.16
72409;BME280;60402;48.082;11.628;2023-03-15T10:00:48;95387.25;;;10.64;46.37
72409;BME280;60402;48.082;11.628;2023-03-15T10:03:22;95396.09;;;9.88;49.26
72409;BME280;60402;48.082;11.628;2023-03-15T10:06:14;95388.34;;;9.43;50.32
72409;BME280;60402;48.082;11.628;2023-03-15T10:08:41;95391.06;;;9.30;52.47
72409;BME280;60402;48.082;11.628;2023-03-15T10:11:14;95395.13;;;8.93;52.94
72409;BME280;60402;48.082;11.628;2023-03-15T10:16:27;95389.13;;;8.11;51.95
72409;BME280;60402;48.082;11.628;2023-03-15T10:19:23;95410.91;;;7.84;51.86
72409;BME280;60402;48.082;11.628;2023-03-15T10:24:35;95393.91;;;7.44;54.09
72409;BME280;60402;48.082;11.628;2023-03-15T10:27:13;95386.34;;;7.14;55.11
72409;BME280;60402;48.082;11.628;2023-03-15T10:29:40;95368.41;;;7.04;55.30
72409;BME280;60402;48.082;11.628;2023-03-15T10:32:13;95405.75;;;7.32;53.79
72409;BME280;60402;48.082;11.628;2023-03-15T10:34:43;95395.19;;;7.12;56.08
72409;BME280;60402;48.082;11.628;2023-03-15T10:37:10;95385.03;;;6.91;56.68
72409;BME280;60402;48.082;11.628;2023-03-15T10:39:35;95392.69;;;6.91;55.63
72409;BME280;60402;48.082;11.628;2023-03-15T10:42:01;95380.06;;;6.76;56.09
72409;BME280;60402;48.082;11.628;2023-03-15T10:44:28;95394.78;;;6.87;55.11
72409;BME280;60402;48.082;11.628;2023-03-15T10:47:11;95396.31;;;7.18;55.14
72409;BME280;60402;48.082;11.628;2023-03-15T10:49:39;95386.72;;;6.89;55.00
72409;BME280;60402;48.082;11.628;2023-03-15T10:52:06;95374.69;;;6.58;54.53
72409;BME280;60402;48.082;11.628;2023-03-15T10:54:32;95398.31;;;6.60;54.28
72409;BME280;60402;48.082;11.628;2023-03-15T10:57:05;95401.41;;;6.70;54.49
72409;BME280;60402;48.082;11.628;2023-03-15T10:59:36;95403.56;;;6.58;53.94
72409;BME280;60402;48.082;11.628;2023-03-15T11:04:41;95372.06;;;6.09;53.81
72409;BME280;60402;48.082;11.628;2023-03-15T11:07:06;95383.44;;;6.33;56.98
72409;BME280;60402;48.082;11.628;2023-03-15T11:09:39;95385.53;;;6.56;54.86
72409;BME280;60402;48.082;11.628;2023-03-15T11:12:07;95366.09;;;6.42;52.24
72409;BME280;60402;48.082;11.628;2023-03-15T11:14:38;95393.19;;;6.55;55.00
72409;BME280;60402;48.082;11.628;2023-03-15T11:17:05;95362.34;;;6.52;55.02
72409;BME280;60402;48.082;11.628;2023-03-15T11:19:37;95379.00;;;6.66;54.66
72409;BME280;60402;48.082;11.628;2023-03-15T11:22:10;95386.34;;;6.56;54.33
72409;BME280;60402;48.082;11.628;2023-03-15T11:24:36;95326.28;;;6.16;55.05
72409;BME280;60402;48.082;11.628;2023-03-15T11:27:05;95361.06;;;6.26;56.06
72409;BME280;60402;48.082;11.628;2023-03-15T11:29:34;95374.34;;;6.52;58.16
72409;BME280;60402;48.082;11.628;2023-03-15T11:32:09;95379.91;;;6.59;55.81
72409;BME280;60402;48.082;11.628;2023-03-15T11:34:55;95364.25;;;6.28;53.49
72409;BME280;60402;48.082;11.628;2023-03-15T11:39:58;95371.81;;;6.92;52.59
72409;BME280;60402;48.082;11.628;2023-03-15T11:42:32;95364.50;;;6.98;51.68
72409;BME280;60402;48.082;11.628;2023-03-15T11:45:09;95332.56;;;6.58;51.06
72409;BME280;60402;48.082;11.628;2023-03-15T11:47:46;95354.78;;;6.76;51.28
72409;BME280;60402;48.082;11.628;2023-03-15T11:50:14;95363.50;;;6.85;51.42
72409;BME280;60402;48.082;11.628;2023-03-15T11:52:40;95346.88;;;6.67;48.60
72409;BME280;60402;48.082;11.628;2023-03-15T11:55:15;95350.63;;;6.87;49.25
72409;BME280;60402;48.082;11.628;2023-03-15T11:57:47;95349.22;;;6.72;46.55
72409;BME280;60402;48.082;11.628;2023-03-15T12:00:20;95336.44;;;6.68;46.29
72409;BME280;60402;48.082;11.628;2023-03-15T12:02:54;95327.53;;;6.46;48.51
72409;BME280;60402;48.082;11.628;2023-03-15T12:05:42;95349.69;;;6.67;49.45
72409;BME280;60402;48.082;11.628;2023-03-15T12:08:17;95347.06;;;6.83;49.79
72409;BME280;60402;48.082;11.628;2023-03-15T12:10:44;95339.00;;;6.85;49.13
72409;BME280;60402;48.082;11.628;2023-03-15T12:13:49;95343.19;;;6.74;48.43
72409;BME280;60402;48.082;11.628;2023-03-15T12:16:19;95341.38;;;6.60;48.69
72409;BME280;60402;48.082;11.628;2023-03-15T12:18:45;95323.19;;;6.41;48.26
72409;BME280;60402;48.082;11.628;2023-03-15T12:21:16;95299.78;;;6.51;50.02
72409;BME280;60402;48.082;11.628;2023-03-15T12:24:04;95321.69;;;6.63;50.23
72409;BME280;60402;48.082;11.628;2023-03-15T12:26:44;95327.19;;;6.71;49.71
72409;BME280;60402;48.082;11.628;2023-03-15T12:29:14;95328.59;;;6.55;48.04
72409;BME280;60402;48.082;11.628;2023-03-15T12:34:48;95308.34;;;6.10;49.59
72409;BME280;60402;48.082;11.628;2023-03-15T12:37:36;95325.09;;;6.17;50.72
72409;BME280;60402;48.082;11.628;2023-03-15T12:53:04;95321.75;;;6.87;49.17
72409;BME280;60402;48.082;11.628;2023-03-15T12:55:37;95302.31;;;6.96;47.87
72409;BME280;60402;48.082;11.628;2023-03-15T12:58:05;95293.81;;;6.76;47.86
72409;BME280;60402;48.082;11.628;2023-03-15T13:00:37;95299.94;;;6.95;46.64
72409;BME280;60402;48.082;11.628;2023-03-15T13:03:07;95295.72;;;6.83;45.89
72409;BME280;60402;48.082;11.628;2023-03-15T13:08:29;95318.06;;;6.90;47.95
72409;BME280;60402;48.082;11.628;2023-03-15T13:19:24;95299.47;;;6.73;48.20
72409;BME280;60402;48.082;11.628;2023-03-15T13:30:47;95323.59;;;6.70;46.65
72409;BME280;60402;48.082;11.628;2023-03-15T13:33:23;95303.25;;;6.32;47.97
72409;BME280;60402;48.082;11.628;2023-03-15T13:36:02;95321.50;;;6.47;47.97
72409;BME280;60402;48.082;11.628;2023-03-15T13:38:31;95322.41;;;6.68;48.18
72409;BME280;60402;48.082;11.628;2023-03-15T13:41:01;95300.06;;;6.60;48.25
72409;BME280;60402;48.082;11.628;2023-03-15T13:43:31;95332.28;;;6.79;50.29
72409;BME280;60402;48.082;11.628;2023-03-15T13:45:58;95301.00;;;6.50;49.63
72409;BME280;60402;48.082;11.628;2023-03-15T13:48:26;95322.31;;;6.44;51.54
72409;BME280;60402;48.082;11.628;2023-03-15T13:50:52;95307.25;;;6.61;49.93
72409;BME280;60402;48.082;11.628;2023-03-15T13:53:47;95327.09;;;6.78;48.93
72409;BME280;60402;48.082;11.628;2023-03-15T13:56:53;95302.59;;;6.51;47.46